sensor_id;sensor_type;location;lat;lon;timestamp;temperature;humidity
27896;DHT22;15241;48.374;10.876;2022-10-16T00:00:11;15.50;99.90
27896;DHT22;15241;48.374;10.876;2022-10-16T00:05:11;15.40;99.90
27896;DHT22;15241;48.374;10.876;2022-10-16T00:10:10;15.40;99.90
27896;DHT22;15241;48.374;10.876;2022-10-16T00:15:10;15.50;99.90
27896;DHT22;15241;48.374;10.876;2022-10-16T00:20:09;15.30;99.90
27896;DHT22;15241;48.374;10.876;2022-10-16T00:25:08;15.30;99.90
27896;DHT22;15241;48.374;10.876;2022-10-16T00:30:09;15.20;99.90
27896;DHT22;15241;48.374;10.876;2022-10-16T00:35:08;15.10;99.90
27896;DHT22;15241;48.374;10.876;2022-10-16T00:40:09;15.00;99.90
27896;DHT22;15241;48.374;10.876;2022-10-16T00:45:10;15.10;99.90
27896;DHT22;15241;48.374;10.876;2022-10-16T00:50:13;15.10;99.90
27896;DHT22;15241;48.374;10.876;2022-10-16T00:55:11;15.10;99.90
27896;DHT22;15241;48.374;10.876;2022-10-16T01:00:15;15.20;99.90
27896;DHT22;15241;48.374;10.876;2022-10-16T01:05:13;15.30;99.90
27896;DHT22;15241;48.374;10.876;2022-10-16T01:10:20;15.40;99.90
27896;DHT22;15241;48.374;10.876;2022-10-16T01:15:22;15.20;99.90
27896;DHT22;15241;48.374;10.876;2022-10-16T01:20:27;15.10;99.90
27896;DHT22;15241;48.374;10.876;2022-10-16T01:25:32;14.90;99.90
27896;DHT22;15241;48.374;10.876;2022-10-16T01:30:32;14.90;99.90
27896;DHT22;15241;48.374;10.876;2022-10-16T01:35:34;14.90;99.90
27896;DHT22;15241;48.374;10.876;2022-10-16T01:40:36;14.90;99.90
27896;DHT22;15241;48.374;10.876;2022-10-16T01:45:37;15.00;99.90
27896;DHT22;15241;48.374;10.876;2022-10-16T01:50:38;15.10;99.90
27896;DHT22;15241;48.374;10.876;2022-10-16T02:00:47;14.90;99.90
27896;DHT22;15241;48.374;10.876;2022-10-16T02:06:06;14.80;99.90
27896;DHT22;15241;48.374;10.876;2022-10-16T02:11:05;14.60;99.90
27896;DHT22;15241;48.374;10.876;2022-10-16T02:16:06;14.50;99.90
27896;DHT22;15241;48.374;10.876;2022-10-16T02:21:09;14.60;99.90
27896;DHT22;15241;48.374;10.876;2022-10-16T02:26:10;14.40;99.90
27896;DHT22;15241;48.374;10.876;2022-10-16T02:31:11;14.50;99.90
27896;DHT22;15241;48.374;10.876;2022-10-16T02:36:12;14.50;99.90
27896;DHT22;15241;48.374;10.876;2022-10-16T02:41:12;14.60;99.90
27896;DHT22;15241;48.374;10.876;2022-10-16T02:46:10;14.60;99.90
27896;DHT22;15241;48.374;10.876;2022-10-16T02:51:09;14.60;99.90
27896;DHT22;15241;48.374;10.876;2022-10-16T02:56:08;14.60;99.90
27896;DHT22;15241;48.374;10.876;2022-10-16T03:01:07;14.60;99.90
27896;DHT22;15241;48.374;10.876;2022-10-16T03:06:06;14.60;99.90
27896;DHT22;15241;48.374;10.876;2022-10-16T03:11:05;14.60;99.90
27896;DHT22;15241;48.374;10.876;2022-10-16T03:16:04;14.60;99.90
27896;DHT22;15241;48.374;10.876;2022-10-16T03:21:03;14.70;99.90
27896;DHT22;15241;48.374;10.876;2022-10-16T03:26:02;14.70;99.90
27896;DHT22;15241;48.374;10.876;2022-10-16T03:31:01;14.70;99.90
27896;DHT22;15241;48.374;10.876;2022-10-16T03:36:00;14.70;99.90
27896;DHT22;15241;48.374;10.876;2022-10-16T03:40:59;14.70;99.90
27896;DHT22;15241;48.374;10.876;2022-10-16T03:45:58;14.70;99.90
27896;DHT22;15241;48.374;10.876;2022-10-16T03:50:58;14.70;99.90
27896;DHT22;15241;48.374;10.876;2022-10-16T03:55:57;14.70;99.90
27896;DHT22;15241;48.374;10.876;2022-10-16T04:00:56;14.80;99.90
27896;DHT22;15241;48.374;10.876;2022-10-16T04:05:56;14.80;99.90
27896;DHT22;15241;48.374;10.876;2022-10-16T04:10:55;14.90;99.90
27896;DHT22;15241;48.374;10.876;2022-10-16T04:15:53;14.90;99.90
27896;DHT22;15241;48.374;10.876;2022-10-16T04:20:52;14.80;99.90
27896;DHT22;15241;48.374;10.876;2022-10-16T04:25:52;14.80;99.90
27896;DHT22;15241;48.374;10.876;2022-10-16T04:30:51;14.80;99.90
27896;DHT22;15241;48.374;10.876;2022-10-16T04:35:56;14.80;99.90
27896;DHT22;15241;48.374;10.876;2022-10-16T04:40:55;14.90;99.90
27896;DHT22;15241;48.374;10.876;2022-10-16T04:45:54;14.90;99.90
27896;DHT22;15241;48.374;10.876;2022-10-16T04:50:53;14.80;99.90
27896;DHT22;15241;48.374;10.876;2022-10-16T04:55:52;14.70;99.90
27896;DHT22;15241;48.374;10.876;2022-10-16T05:00:51;14.70;99.90
27896;DHT22;15241;48.374;10.876;2022-10-16T05:05:50;14.50;99.90
27896;DHT22;15241;48.374;10.876;2022-10-16T05:10:49;14.50;99.90
27896;DHT22;15241;48.374;10.876;2022-10-16T05:15:48;14.40;99.90
27896;DHT22;15241;48.374;10.876;2022-10-16T05:20:47;14.30;99.90
27896;DHT22;15241;48.374;10.876;2022-10-16T05:25:53;14.30;99.90
27896;DHT22;15241;48.374;10.876;2022-10-16T05:30:53;14.30;99.90
27896;DHT22;15241;48.374;10.876;2022-10-16T05:35:52;14.30;99.90
27896;DHT22;15241;48.374;10.876;2022-10-16T05:40:54;14.20;99.90
27896;DHT22;15241;48.374;10.876;2022-10-16T05:45:56;14.20;99.90
27896;DHT22;15241;48.374;10.876;2022-10-16T05:50:59;14.20;99.90
27896;DHT22;15241;48.374;10.876;2022-10-16T05:55:58;14.20;99.90
27896;DHT22;15241;48.374;10.876;2022-10-16T06:00:58;14.20;99.90
27896;DHT22;15241;48.374;10.876;2022-10-16T06:05:58;14.20;99.90
27896;DHT22;15241;48.374;10.876;2022-10-16T06:11:04;14.30;99.90
27896;DHT22;15241;48.374;10.876;2022-10-16T06:16:05;14.30;99.90
27896;DHT22;15241;48.374;10.876;2022-10-16T06:21:09;14.50;99.90
27896;DHT22;15241;48.374;10.876;2022-10-16T06:26:09;14.60;99.90
27896;DHT22;15241;48.374;10.876;2022-10-16T06:31:10;14.70;99.90
27896;DHT22;15241;48.374;10.876;2022-10-16T06:36:10;14.70;99.90
27896;DHT22;15241;48.374;10.876;2022-10-16T06:41:12;14.80;99.90
27896;DHT22;15241;48.374;10.876;2022-10-16T06:46:13;14.90;99.90
27896;DHT22;15241;48.374;10.876;2022-10-16T06:51:14;14.90;99.90
27896;DHT22;15241;48.374;10.876;2022-10-16T06:56:15;15.00;99.90
27896;DHT22;15241;48.374;10.876;2022-10-16T07:01:15;15.10;99.90
27896;DHT22;15241;48.374;10.876;2022-10-16T07:06:16;15.10;99.90
27896;DHT22;15241;48.374;10.876;2022-10-16T07:11:17;15.20;99.90
27896;DHT22;15241;48.374;10.876;2022-10-16T07:16:17;15.40;99.90
27896;DHT22;15241;48.374;10.876;2022-10-16T07:21:18;15.60;99.90
27896;DHT22;15241;48.374;10.876;2022-10-16T07:26:17;15.70;99.90
27896;DHT22;15241;48.374;10.876;2022-10-16T07:31:17;15.80;99.90
27896;DHT22;15241;48.374;10.876;2022-10-16T07:36:17;16.00;99.90
27896;DHT22;15241;48.374;10.876;2022-10-16T07:41:18;16.10;99.90
27896;DHT22;15241;48.374;10.876;2022-10-16T07:46:19;16.30;99.90
27896;DHT22;15241;48.374;10.876;2022-10-16T07:51:19;16.30;99.90
27896;DHT22;15241;48.374;10.876;2022-10-16T07:56:19;16.40;99.90
27896;DHT22;15241;48.374;10.876;2022-10-16T08:01:20;16.60;99.90
27896;DHT22;15241;48.374;10.876;2022-10-16T08:06:20;16.80;99.90
27896;DHT22;15241;48.374;10.876;2022-10-16T08:11:19;17.00;99.90
27896;DHT22;15241;48.374;10.876;2022-10-16T08:16:18;17.20;99.90
27896;DHT22;15241;48.374;10.876;2022-10-16T08:21:19;17.40;99.90
27896;DHT22;15241;48.374;10.876;2022-10-16T08:26:18;17.70;99.90
27896;DHT22;15241;48.374;10.876;2022-10-16T08:31:17;18.00;99.90
27896;DHT22;15241;48.374;10.876;2022-10-16T08:36:17;18.10;99.90
27896;DHT22;15241;48.374;10.876;2022-10-16T08:41:27;18.30;99.90
27896;DHT22;15241;48.374;10.876;2022-10-16T08:46:33;18.70;99.90
27896;DHT22;15241;48.374;10.876;2022-10-16T08:51:35;19.10;99.90
27896;DHT22;15241;48.374;10.876;2022-10-16T08:56:34;19.50;99.90
27896;DHT22;15241;48.374;10.876;2022-10-16T09:01:37;19.90;99.90
27896;DHT22;15241;48.374;10.876;2022-10-16T09:06:46;20.80;99.90
27896;DHT22;15241;48.374;10.876;2022-10-16T09:11:48;21.10;99.90
27896;DHT22;15241;48.374;10.876;2022-10-16T09:16:48;21.60;99.90
27896;DHT22;15241;48.374;10.876;2022-10-16T09:21:49;22.20;99.90
27896;DHT22;15241;48.374;10.876;2022-10-16T09:26:48;22.90;99.90
27896;DHT22;15241;48.374;10.876;2022-10-16T09:31:47;23.80;99.90
27896;DHT22;15241;48.374;10.876;2022-10-16T09:36:47;24.20;99.90
27896;DHT22;15241;48.374;10.876;2022-10-16T09:41:46;24.70;99.90
27896;DHT22;15241;48.374;10.876;2022-10-16T09:46:45;25.00;99.90
27896;DHT22;15241;48.374;10.876;2022-10-16T09:51:44;25.30;99.90
27896;DHT22;15241;48.374;10.876;2022-10-16T09:56:43;25.60;99.90
27896;DHT22;15241;48.374;10.876;2022-10-16T10:01:44;25.40;99.90
27896;DHT22;15241;48.374;10.876;2022-10-16T10:06:46;25.20;99.90
27896;DHT22;15241;48.374;10.876;2022-10-16T10:11:52;25.30;99.90
27896;DHT22;15241;48.374;10.876;2022-10-16T10:16:53;25.60;99.90
27896;DHT22;15241;48.374;10.876;2022-10-16T10:21:52;25.50;99.90
27896;DHT22;15241;48.374;10.876;2022-10-16T10:26:56;25.60;99.90
27896;DHT22;15241;48.374;10.876;2022-10-16T10:31:59;25.60;99.90
27896;DHT22;15241;48.374;10.876;2022-10-16T10:42:14;25.80;99.90
27896;DHT22;15241;48.374;10.876;2022-10-16T10:47:17;26.70;99.90
27896;DHT22;15241;48.374;10.876;2022-10-16T10:52:29;27.90;99.90
27896;DHT22;15241;48.374;10.876;2022-10-16T10:57:32;29.90;99.90
27896;DHT22;15241;48.374;10.876;2022-10-16T11:02:34;29.60;99.80
27896;DHT22;15241;48.374;10.876;2022-10-16T11:07:36;30.10;98.60
27896;DHT22;15241;48.374;10.876;2022-10-16T11:12:38;30.40;97.40
27896;DHT22;15241;48.374;10.876;2022-10-16T11:17:40;30.30;96.50
27896;DHT22;15241;48.374;10.876;2022-10-16T11:22:42;31.80;94.20
27896;DHT22;15241;48.374;10.876;2022-10-16T11:27:44;32.20;92.80
27896;DHT22;15241;48.374;10.876;2022-10-16T11:32:53;33.80;90.60
27896;DHT22;15241;48.374;10.876;2022-10-16T11:37:54;33.00;90.00
27896;DHT22;15241;48.374;10.876;2022-10-16T11:42:59;32.50;89.50
27896;DHT22;15241;48.374;10.876;2022-10-16T11:48:02;31.80;90.30
27896;DHT22;15241;48.374;10.876;2022-10-16T11:53:04;31.20;90.90
27896;DHT22;15241;48.374;10.876;2022-10-16T11:58:07;31.30;90.70
27896;DHT22;15241;48.374;10.876;2022-10-16T12:03:11;31.00;90.30
27896;DHT22;15241;48.374;10.876;2022-10-16T12:08:11;31.20;89.70
27896;DHT22;15241;48.374;10.876;2022-10-16T12:13:30;33.10;85.40
27896;DHT22;15241;48.374;10.876;2022-10-16T12:18:29;37.90;74.10
27896;DHT22;15241;48.374;10.876;2022-10-16T12:23:28;40.40;62.20
27896;DHT22;15241;48.374;10.876;2022-10-16T12:28:29;43.20;52.80
27896;DHT22;15241;48.374;10.876;2022-10-16T12:33:30;45.40;48.00
27896;DHT22;15241;48.374;10.876;2022-10-16T12:38:32;46.40;44.10
27896;DHT22;15241;48.374;10.876;2022-10-16T12:43:40;48.50;40.60
27896;DHT22;15241;48.374;10.876;2022-10-16T12:48:40;47.20;40.30
27896;DHT22;15241;48.374;10.876;2022-10-16T12:53:39;45.40;40.80
27896;DHT22;15241;48.374;10.876;2022-10-16T12:59:01;45.40;41.20
27896;DHT22;15241;48.374;10.876;2022-10-16T13:04:21;47.50;39.80
27896;DHT22;15241;48.374;10.876;2022-10-16T13:09:35;49.00;36.80
27896;DHT22;15241;48.374;10.876;2022-10-16T13:19:56;49.30;33.80
27896;DHT22;15241;48.374;10.876;2022-10-16T13:25:02;50.30;33.60
27896;DHT22;15241;48.374;10.876;2022-10-16T13:30:10;50.50;34.40
27896;DHT22;15241;48.374;10.876;2022-10-16T13:35:15;50.50;31.90
27896;DHT22;15241;48.374;10.876;2022-10-16T13:40:13;50.80;31.60
27896;DHT22;15241;48.374;10.876;2022-10-16T13:45:20;50.50;32.10
27896;DHT22;15241;48.374;10.876;2022-10-16T13:50:19;50.80;31.20
27896;DHT22;15241;48.374;10.876;2022-10-16T13:55:18;51.50;30.90
27896;DHT22;15241;48.374;10.876;2022-10-16T14:00:24;52.30;30.60
27896;DHT22;15241;48.374;10.876;2022-10-16T14:05:23;52.60;30.00
27896;DHT22;15241;48.374;10.876;2022-10-16T14:10:24;51.90;29.80
27896;DHT22;15241;48.374;10.876;2022-10-16T14:15:23;50.70;30.70
27896;DHT22;15241;48.374;10.876;2022-10-16T14:20:26;48.50;31.30
27896;DHT22;15241;48.374;10.876;2022-10-16T14:25:27;47.10;33.30
27896;DHT22;15241;48.374;10.876;2022-10-16T14:30:27;45.90;34.80
27896;DHT22;15241;48.374;10.876;2022-10-16T14:35:29;44.60;36.90
27896;DHT22;15241;48.374;10.876;2022-10-16T14:40:30;43.90;38.20
27896;DHT22;15241;48.374;10.876;2022-10-16T14:45:31;43.10;40.20
27896;DHT22;15241;48.374;10.876;2022-10-16T14:50:31;42.40;40.10
27896;DHT22;15241;48.374;10.876;2022-10-16T14:55:30;41.80;40.60
27896;DHT22;15241;48.374;10.876;2022-10-16T15:00:29;41.40;40.50
27896;DHT22;15241;48.374;10.876;2022-10-16T15:05:28;41.00;41.50
27896;DHT22;15241;48.374;10.876;2022-10-16T15:10:28;40.40;42.70
27896;DHT22;15241;48.374;10.876;2022-10-16T15:15:39;39.40;43.90
27896;DHT22;15241;48.374;10.876;2022-10-16T15:20:39;38.20;45.70
27896;DHT22;15241;48.374;10.876;2022-10-16T15:25:41;36.60;48.10
27896;DHT22;15241;48.374;10.876;2022-10-16T15:30:40;35.80;49.30
27896;DHT22;15241;48.374;10.876;2022-10-16T15:35:39;34.80;50.10
27896;DHT22;15241;48.374;10.876;2022-10-16T15:40:38;33.50;52.70
27896;DHT22;15241;48.374;10.876;2022-10-16T15:45:37;32.40;55.20
27896;DHT22;15241;48.374;10.876;2022-10-16T15:50:38;31.30;58.00
27896;DHT22;15241;48.374;10.876;2022-10-16T15:55:37;30.30;60.70
27896;DHT22;15241;48.374;10.876;2022-10-16T16:00:36;29.30;63.50
27896;DHT22;15241;48.374;10.876;2022-10-16T16:05:37;28.50;67.30
27896;DHT22;15241;48.374;10.876;2022-10-16T16:10:36;27.70;70.20
27896;DHT22;15241;48.374;10.876;2022-10-16T16:15:39;26.90;73.20
27896;DHT22;15241;48.374;10.876;2022-10-16T16:20:38;26.20;76.00
27896;DHT22;15241;48.374;10.876;2022-10-16T16:25:36;25.60;79.50
27896;DHT22;15241;48.374;10.876;2022-10-16T16:30:35;25.00;82.50
27896;DHT22;15241;48.374;10.876;2022-10-16T16:35:34;24.50;86.00
27896;DHT22;15241;48.374;10.876;2022-10-16T16:40:33;24.00;88.80
27896;DHT22;15241;48.374;10.876;2022-10-16T16:45:35;23.60;91.00
27896;DHT22;15241;48.374;10.876;2022-10-16T16:50:36;23.30;92.80
27896;DHT22;15241;48.374;10.876;2022-10-16T16:55:35;22.80;94.30
27896;DHT22;15241;48.374;10.876;2022-10-16T17:00:36;22.50;96.50
27896;DHT22;15241;48.374;10.876;2022-10-16T17:05:35;22.20;98.10
27896;DHT22;15241;48.374;10.876;2022-10-16T17:10:41;21.90;99.30
27896;DHT22;15241;48.374;10.876;2022-10-16T17:15:34;21.80;99.90
27896;DHT22;15241;48.374;10.876;2022-10-16T17:20:36;21.60;99.90
27896;DHT22;15241;48.374;10.876;2022-10-16T17:25:36;21.40;99.90
27896;DHT22;15241;48.374;10.876;2022-10-16T17:30:35;21.30;99.90
27896;DHT22;15241;48.374;10.876;2022-10-16T17:35:38;21.10;99.90
27896;DHT22;15241;48.374;10.876;2022-10-16T17:40:37;20.90;99.90
27896;DHT22;15241;48.374;10.876;2022-10-16T17:45:37;20.70;99.90
27896;DHT22;15241;48.374;10.876;2022-10-16T17:50:41;20.50;99.90
27896;DHT22;15241;48.374;10.876;2022-10-16T17:55:39;20.30;99.90
27896;DHT22;15241;48.374;10.876;2022-10-16T18:00:38;20.10;99.90
27896;DHT22;15241;48.374;10.876;2022-10-16T18:05:38;19.90;99.90
27896;DHT22;15241;48.374;10.876;2022-10-16T18:10:37;19.80;99.90
27896;DHT22;15241;48.374;10.876;2022-10-16T18:15:38;19.60;99.90
27896;DHT22;15241;48.374;10.876;2022-10-16T18:20:37;19.50;99.90
27896;DHT22;15241;48.374;10.876;2022-10-16T18:25:35;19.30;99.90
27896;DHT22;15241;48.374;10.876;2022-10-16T18:30:35;19.20;99.90
27896;DHT22;15241;48.374;10.876;2022-10-16T18:35:36;19.10;99.90
27896;DHT22;15241;48.374;10.876;2022-10-16T18:40:36;18.90;99.90
27896;DHT22;15241;48.374;10.876;2022-10-16T18:45:35;18.90;99.90
27896;DHT22;15241;48.374;10.876;2022-10-16T18:50:37;18.70;99.90
27896;DHT22;15241;48.374;10.876;2022-10-16T18:55:36;18.60;99.90
27896;DHT22;15241;48.374;10.876;2022-10-16T19:00:34;18.50;99.90
27896;DHT22;15241;48.374;10.876;2022-10-16T19:05:34;18.40;99.90
27896;DHT22;15241;48.374;10.876;2022-10-16T19:10:35;18.30;99.90
27896;DHT22;15241;48.374;10.876;2022-10-16T19:15:34;18.20;99.90
27896;DHT22;15241;48.374;10.876;2022-10-16T19:20:35;18.10;99.90
27896;DHT22;15241;48.374;10.876;2022-10-16T19:25:37;17.90;99.90
27896;DHT22;15241;48.374;10.876;2022-10-16T19:30:36;17.90;99.90
27896;DHT22;15241;48.374;10.876;2022-10-16T19:35:35;17.80;99.90
27896;DHT22;15241;48.374;10.876;2022-10-16T19:40:34;17.70;99.90
27896;DHT22;15241;48.374;10.876;2022-10-16T19:45:34;17.60;99.90
27896;DHT22;15241;48.374;10.876;2022-10-16T19:50:33;17.50;99.90
27896;DHT22;15241;48.374;10.876;2022-10-16T19:55:32;17.40;99.90
27896;DHT22;15241;48.374;10.876;2022-10-16T20:00:31;17.30;99.90
27896;DHT22;15241;48.374;10.876;2022-10-16T20:10:37;17.20;99.90
27896;DHT22;15241;48.374;10.876;2022-10-16T20:15:37;17.10;99.90
27896;DHT22;15241;48.374;10.876;2022-10-16T20:20:37;17.00;99.90
27896;DHT22;15241;48.374;10.876;2022-10-16T20:25:38;16.90;99.90
27896;DHT22;15241;48.374;10.876;2022-10-16T20:30:39;16.90;99.90
27896;DHT22;15241;48.374;10.876;2022-10-16T20:35:39;16.90;99.90
27896;DHT22;15241;48.374;10.876;2022-10-16T20:40:40;16.80;99.90
27896;DHT22;15241;48.374;10.876;2022-10-16T20:45:39;16.80;99.90
27896;DHT22;15241;48.374;10.876;2022-10-16T20:50:39;16.70;99.90
27896;DHT22;15241;48.374;10.876;2022-10-16T20:55:39;16.60;99.90
27896;DHT22;15241;48.374;10.876;2022-10-16T21:00:38;16.50;99.90
27896;DHT22;15241;48.374;10.876;2022-10-16T21:05:40;16.60;99.90
27896;DHT22;15241;48.374;10.876;2022-10-16T21:10:39;16.50;99.90
27896;DHT22;15241;48.374;10.876;2022-10-16T21:15:38;16.50;99.90
27896;DHT22;15241;48.374;10.876;2022-10-16T21:20:42;16.50;99.90
27896;DHT22;15241;48.374;10.876;2022-10-16T21:25:46;16.50;99.90
27896;DHT22;15241;48.374;10.876;2022-10-16T21:30:45;16.40;99.90
27896;DHT22;15241;48.374;10.876;2022-10-16T21:35:44;16.40;99.90
27896;DHT22;15241;48.374;10.876;2022-10-16T21:40:43;16.30;99.90
27896;DHT22;15241;48.374;10.876;2022-10-16T21:45:42;16.30;99.90
27896;DHT22;15241;48.374;10.876;2022-10-16T21:50:46;16.20;99.90
27896;DHT22;15241;48.374;10.876;2022-10-16T21:55:46;16.10;99.90
27896;DHT22;15241;48.374;10.876;2022-10-16T22:00:45;16.00;99.90
27896;DHT22;15241;48.374;10.876;2022-10-16T22:05:44;16.00;99.90
27896;DHT22;15241;48.374;10.876;2022-10-16T22:10:42;15.90;99.90
27896;DHT22;15241;48.374;10.876;2022-10-16T22:15:49;15.80;99.90
27896;DHT22;15241;48.374;10.876;2022-10-16T22:20:48;15.80;99.90
27896;DHT22;15241;48.374;10.876;2022-10-16T22:25:47;15.70;99.90
27896;DHT22;15241;48.374;10.876;2022-10-16T22:30:46;15.70;99.90
27896;DHT22;15241;48.374;10.876;2022-10-16T22:35:44;15.70;99.90
27896;DHT22;15241;48.374;10.876;2022-10-16T22:40:43;15.60;99.90
27896;DHT22;15241;48.374;10.876;2022-10-16T22:45:42;15.50;99.90
27896;DHT22;15241;48.374;10.876;2022-10-16T22:50:41;15.50;99.90
27896;DHT22;15241;48.374;10.876;2022-10-16T22:55:40;15.50;99.90
27896;DHT22;15241;48.374;10.876;2022-10-16T23:00:41;15.50;99.90
27896;DHT22;15241;48.374;10.876;2022-10-16T23:05:41;15.40;99.90
27896;DHT22;15241;48.374;10.876;2022-10-16T23:10:42;15.40;99.90
27896;DHT22;15241;48.374;10.876;2022-10-16T23:15:42;15.30;99.90
27896;DHT22;15241;48.374;10.876;2022-10-16T23:20:41;15.20;99.90
27896;DHT22;15241;48.374;10.876;2022-10-16T23:25:44;15.20;99.90
27896;DHT22;15241;48.374;10.876;2022-10-16T23:30:43;15.10;99.90
27896;DHT22;15241;48.374;10.876;2022-10-16T23:35:42;15.00;99.90
27896;DHT22;15241;48.374;10.876;2022-10-16T23:40:41;15.00;99.90
27896;DHT22;15241;48.374;10.876;2022-10-16T23:45:41;14.90;99.90
27896;DHT22;15241;48.374;10.876;2022-10-16T23:50:40;15.00;99.90
27896;DHT22;15241;48.374;10.876;2022-10-16T23:55:39;14.80;99.90
